createdAt,value
2023-06-11T00:00:59.377Z,34.54
2023-06-11T00:04:03.153Z,35.29
2023-06-11T00:07:07.487Z,35.81
2023-06-11T00:10:11.598Z,36.46
2023-06-11T00:13:15.649Z,36.87
2023-06-11T00:16:19.535Z,36.06
2023-06-11T00:19:24.012Z,35.79
2023-06-11T00:22:28.673Z,35.76
2023-06-11T00:25:34.453Z,36.22
2023-06-11T00:28:37.701Z,36.38
2023-06-11T00:31:41.555Z,36.65
2023-06-11T00:34:46.573Z,37.16
2023-06-11T00:37:51.661Z,37.10
2023-06-11T00:40:55.714Z,37.49
2023-06-11T00:43:59.582Z,37.88
2023-06-11T00:47:02.874Z,38.51
2023-06-11T00:50:06.676Z,38.17
2023-06-11T00:53:10.001Z,37.61
2023-06-11T00:56:13.450Z,37.97
2023-06-11T00:59:18.961Z,38.89
2023-06-11T01:02:30.742Z,38.37
2023-06-11T01:06:03.242Z,37.80
2023-06-11T01:09:09.264Z,37.76
2023-06-11T01:12:13.940Z,38.05
2023-06-11T01:15:18.873Z,37.46
2023-06-11T01:18:26.609Z,37.27
2023-06-11T01:21:38.782Z,37.72
2023-06-11T01:25:09.502Z,38.75
2023-06-11T01:28:40.616Z,39.65
2023-06-11T01:31:45.822Z,39.36
2023-06-11T01:34:51.647Z,38.64
2023-06-11T01:37:57.752Z,37.39
2023-06-11T01:41:13.388Z,37.31
2023-06-11T01:44:22.028Z,37.42
2023-06-11T01:47:25.727Z,38.74
2023-06-11T01:50:29.880Z,39.84
2023-06-11T01:53:33.685Z,38.98
2023-06-11T01:56:37.640Z,38.92
2023-06-11T01:59:41.540Z,39.38
2023-06-11T02:02:49.012Z,38.68
2023-06-11T02:05:54.847Z,37.72
2023-06-11T02:08:59.043Z,38.19
2023-06-11T02:12:02.696Z,38.43
2023-06-11T02:15:07.856Z,38.68
2023-06-11T02:18:11.850Z,39.21
2023-06-11T02:21:15.343Z,39.60
2023-06-11T02:24:18.658Z,39.42
2023-06-11T02:27:22.786Z,39.45
2023-06-11T02:30:26.841Z,38.77
2023-06-11T02:33:30.824Z,37.67
2023-06-11T02:36:34.452Z,37.47
2023-06-11T02:39:38.531Z,37.91
2023-06-11T02:42:42.277Z,37.67
2023-06-11T02:45:45.649Z,37.16
2023-06-11T02:48:49.547Z,37.28
2023-06-11T02:51:52.895Z,37.39
2023-06-11T02:54:56.315Z,37.56
2023-06-11T02:58:00.207Z,37.45
2023-06-11T03:01:04.853Z,37.44
2023-06-11T03:04:09.278Z,37.65
2023-06-11T03:07:13.066Z,37.31
2023-06-11T03:10:17.579Z,37.86
2023-06-11T03:13:21.314Z,37.98
2023-06-11T03:16:28.621Z,37.50
2023-06-11T03:19:32.454Z,37.69
2023-06-11T03:22:36.689Z,37.20
2023-06-11T03:25:41.355Z,36.85
2023-06-11T03:28:46.200Z,36.22
2023-06-11T03:31:50.523Z,35.24
2023-06-11T03:34:55.799Z,34.93
2023-06-11T03:38:00.882Z,34.65
2023-06-11T03:41:05.608Z,34.51
2023-06-11T03:44:10.601Z,34.05
2023-06-11T03:47:15.140Z,33.83
2023-06-11T03:50:19.896Z,33.74
2023-06-11T03:53:23.628Z,33.93
2023-06-11T03:56:29.528Z,34.01
2023-06-11T03:59:33.283Z,34.05
2023-06-11T04:02:37.906Z,34.17
2023-06-11T04:05:43.237Z,33.88
2023-06-11T04:08:47.766Z,33.49
2023-06-11T04:11:51.818Z,32.58
2023-06-11T04:14:55.255Z,33.05
2023-06-11T04:17:59.077Z,32.72
2023-06-11T04:21:03.685Z,33.04
2023-06-11T04:24:09.660Z,33.49
2023-06-11T04:27:14.617Z,33.67
2023-06-11T04:30:18.990Z,33.70
2023-06-11T04:33:34.176Z,33.42
2023-06-11T04:36:40.363Z,33.43
2023-06-11T04:39:45.436Z,33.01
2023-06-11T04:42:49.130Z,32.89
2023-06-11T04:45:58.605Z,32.92
2023-06-11T04:49:08.682Z,32.80
2023-06-11T04:52:13.032Z,32.67
2023-06-11T04:55:18.439Z,32.69
2023-06-11T04:58:24.607Z,32.66
2023-06-11T05:01:32.286Z,32.60
2023-06-11T05:04:39.229Z,32.60
2023-06-11T05:07:43.792Z,32.63
2023-06-11T05:10:48.103Z,32.72
2023-06-11T05:13:51.707Z,32.60
2023-06-11T05:16:55.017Z,32.27
2023-06-11T05:19:58.535Z,32.44
2023-06-11T05:23:04.383Z,32.49
2023-06-11T05:26:13.902Z,32.62
2023-06-11T05:29:21.499Z,32.20
2023-06-11T05:32:25.555Z,31.48
2023-06-11T05:35:31.720Z,31.24
2023-06-11T05:38:35.493Z,31.27
2023-06-11T05:41:40.710Z,31.42
2023-06-11T05:44:45.148Z,31.80
2023-06-11T05:47:49.701Z,32.02
2023-06-11T05:50:54.296Z,32.09
2023-06-11T05:54:02.389Z,31.88
2023-06-11T05:57:09.762Z,31.82
2023-06-11T06:00:16.916Z,31.93
2023-06-11T06:03:26.589Z,32.22
2023-06-11T06:06:32.273Z,32.44
2023-06-11T06:09:36.537Z,32.37
2023-06-11T06:12:40.698Z,32.24
2023-06-11T06:15:46.015Z,32.27
2023-06-11T06:18:49.876Z,32.46
2023-06-11T06:21:53.602Z,32.41
2023-06-11T06:25:00.004Z,32.15
2023-06-11T06:28:07.905Z,32.07
2023-06-11T06:31:14.133Z,32.13
2023-06-11T06:34:20.700Z,31.99
2023-06-11T06:37:25.784Z,31.95
2023-06-11T06:40:30.048Z,32.05
2023-06-11T06:43:35.279Z,31.97
2023-06-11T06:46:44.173Z,32.05
2023-06-11T06:49:47.888Z,32.05
2023-06-11T06:52:52.267Z,31.79
2023-06-11T06:55:56.244Z,31.61
2023-06-11T06:59:00.505Z,31.82
2023-06-11T07:02:05.488Z,31.92
2023-06-11T07:05:12.166Z,32.00
2023-06-11T07:08:15.445Z,32.10
2023-06-11T07:11:23.223Z,32.07
2023-06-11T07:14:27.132Z,32.03
2023-06-11T07:17:30.526Z,32.01
2023-06-11T07:20:34.674Z,31.90
2023-06-11T07:23:37.835Z,31.54
2023-06-11T07:26:43.852Z,31.60
2023-06-11T07:29:48.641Z,31.61
2023-06-11T07:32:54.796Z,31.50
2023-06-11T07:35:58.752Z,31.41
2023-06-11T07:39:03.157Z,31.27
2023-06-11T07:42:08.971Z,31.34
2023-06-11T07:45:14.761Z,31.40
2023-06-11T07:48:18.898Z,31.48
2023-06-11T07:51:25.668Z,31.44
2023-06-11T07:54:35.792Z,31.31
2023-06-11T07:57:40.086Z,31.26
2023-06-11T08:00:43.558Z,31.07
2023-06-11T08:03:47.519Z,31.11
2023-06-11T08:06:51.487Z,31.19
2023-06-11T08:09:55.556Z,31.20
2023-06-11T08:12:59.235Z,31.18
2023-06-11T08:16:03.224Z,31.03
2023-06-11T08:19:06.119Z,31.04
2023-06-11T08:22:10.361Z,31.20
2023-06-11T08:25:13.335Z,31.12
2023-06-11T08:28:17.866Z,30.99
2023-06-11T08:31:21.547Z,30.93
2023-06-11T08:34:25.863Z,30.99
2023-06-11T08:37:29.628Z,31.00
2023-06-11T08:40:40.847Z,30.99
2023-06-11T08:43:44.089Z,30.87
2023-06-11T08:46:50.899Z,30.81
2023-06-11T08:49:57.106Z,30.82
2023-06-11T08:53:04.298Z,30.68
2023-06-11T08:56:08.579Z,30.63
2023-06-11T08:59:11.969Z,30.59
2023-06-11T09:02:15.161Z,30.52
2023-06-11T09:05:19.392Z,30.45
2023-06-11T09:08:22.991Z,30.46
2023-06-11T09:11:33.926Z,30.44
2023-06-11T09:14:37.733Z,30.29
2023-06-11T09:17:43.439Z,30.21
2023-06-11T09:20:51.194Z,30.09
2023-06-11T09:23:55.425Z,30.02
2023-06-11T09:27:00.145Z,30.01
2023-06-11T09:30:15.589Z,30.02
2023-06-11T09:33:19.324Z,29.89
2023-06-11T09:36:24.692Z,29.83
2023-06-11T09:39:30.271Z,29.83
2023-06-11T09:42:36.456Z,29.85
2023-06-11T09:45:40.555Z,29.69
2023-06-11T09:48:44.969Z,29.60
2023-06-11T09:51:49.188Z,29.54
2023-06-11T09:54:54.497Z,29.55
2023-06-11T09:57:58.316Z,29.52
2023-06-11T10:01:07.207Z,29.44
2023-06-11T10:04:11.812Z,29.38
2023-06-11T10:07:17.324Z,29.34
2023-06-11T10:10:24.094Z,29.34
2023-06-11T10:13:32.592Z,29.36
2023-06-11T10:16:37.057Z,29.22
2023-06-11T10:19:42.454Z,29.15
2023-06-11T10:22:47.300Z,29.11
2023-06-11T10:26:00.001Z,29.08
2023-06-11T10:29:11.333Z,29.03
2023-06-11T10:32:25.163Z,29.01
2023-06-11T10:35:34.196Z,28.87
2023-06-11T10:38:40.878Z,28.79
2023-06-11T10:41:45.416Z,28.66
2023-06-11T10:44:50.101Z,28.60
2023-06-11T10:47:56.300Z,28.57
2023-06-11T10:51:04.127Z,28.53
2023-06-11T10:54:08.902Z,28.44
2023-06-11T10:57:13.471Z,28.38
2023-06-11T11:00:17.718Z,28.32
2023-06-11T11:03:26.415Z,28.27
2023-06-11T11:06:30.338Z,28.23
2023-06-11T11:09:33.990Z,28.21
2023-06-11T11:12:45.349Z,28.19
2023-06-11T11:15:49.233Z,28.15
2023-06-11T11:18:53.924Z,28.09
2023-06-11T11:21:57.807Z,28.05
2023-06-11T11:25:11.074Z,28.02
2023-06-11T11:28:14.646Z,27.95
2023-06-11T11:31:22.313Z,27.90
2023-06-11T11:34:25.986Z,27.84
2023-06-11T11:37:32.835Z,27.77
2023-06-11T11:40:38.744Z,27.68
2023-06-11T11:43:44.410Z,27.59
2023-06-11T11:46:48.606Z,27.51
2023-06-11T11:49:56.989Z,27.51
2023-06-11T11:53:13.780Z,27.45
2023-06-11T11:56:17.182Z,27.39
2023-06-11T11:59:26.021Z,27.30
2023-06-11T12:02:31.840Z,27.23
2023-06-11T12:05:34.954Z,27.14
2023-06-11T12:08:39.010Z,27.06
2023-06-11T12:11:56.125Z,26.99
2023-06-11T12:15:07.118Z,26.89
2023-06-11T12:18:10.340Z,26.79
2023-06-11T12:21:13.991Z,26.73
2023-06-11T12:24:18.269Z,26.67
2023-06-11T12:27:22.528Z,26.55
2023-06-11T12:30:26.709Z,26.44
2023-06-11T12:33:31.244Z,26.40
2023-06-11T12:36:38.625Z,26.35
2023-06-11T12:39:46.898Z,26.28
2023-06-11T12:42:58.427Z,26.19
2023-06-11T12:46:03.164Z,26.11
2023-06-11T12:49:06.460Z,26.04
2023-06-11T12:52:13.267Z,25.97
2023-06-11T12:55:16.881Z,25.90
2023-06-11T12:58:21.247Z,25.80
2023-06-11T13:01:25.028Z,25.73
2023-06-11T13:04:28.674Z,25.68
2023-06-11T13:07:32.447Z,25.60
2023-06-11T13:10:36.362Z,25.51
2023-06-11T13:13:40.422Z,25.44
2023-06-11T13:16:43.965Z,25.38
2023-06-11T13:19:48.125Z,25.32
2023-06-11T13:22:51.642Z,25.28
2023-06-11T13:25:55.876Z,25.23
2023-06-11T13:28:59.625Z,25.19
2023-06-11T13:32:05.266Z,25.11
2023-06-11T13:35:09.422Z,25.04
2023-06-11T13:38:13.502Z,24.98
2023-06-11T13:41:17.296Z,24.93
2023-06-11T13:44:21.326Z,24.88
2023-06-11T13:47:25.059Z,24.84
2023-06-11T13:50:29.230Z,24.81
2023-06-11T13:53:33.266Z,24.76
2023-06-11T13:56:36.750Z,24.71
2023-06-11T13:59:39.669Z,24.67
2023-06-11T14:02:43.140Z,24.64
2023-06-11T14:05:47.362Z,24.49
2023-06-11T14:08:51.077Z,24.32
2023-06-11T14:11:54.908Z,24.05
2023-06-11T14:14:58.927Z,23.84
2023-06-11T14:18:02.549Z,23.64
2023-06-11T14:21:06.463Z,23.43
2023-06-11T14:24:11.415Z,23.27
2023-06-11T14:27:15.176Z,23.19
2023-06-11T14:30:19.856Z,23.12
2023-06-11T14:33:23.255Z,23.10
2023-06-11T14:36:27.485Z,23.07
2023-06-11T14:39:31.684Z,23.05
2023-06-11T14:42:35.678Z,23.00
2023-06-11T14:45:41.331Z,22.97
2023-06-11T14:51:50.244Z,22.83
2023-06-11T14:54:54.632Z,22.64
2023-06-11T14:57:58.292Z,22.54
2023-06-11T15:01:03.262Z,22.51
2023-06-11T15:04:07.004Z,22.42
2023-06-11T15:10:21.233Z,22.26
2023-06-11T15:13:25.245Z,22.16
2023-06-11T15:16:28.935Z,22.05
2023-06-11T15:19:32.982Z,21.91
2023-06-11T15:22:39.053Z,21.77
2023-06-11T15:25:42.427Z,21.62
2023-06-11T15:28:45.467Z,21.57
2023-06-11T15:31:52.025Z,21.61
2023-06-11T15:34:55.018Z,21.62
2023-06-11T15:37:58.324Z,21.63
2023-06-11T15:41:01.399Z,21.58
2023-06-11T15:44:05.405Z,21.54
2023-06-11T15:47:09.187Z,21.49
2023-06-11T15:50:13.686Z,21.46
2023-06-11T15:53:17.607Z,21.39
2023-06-11T15:56:20.890Z,21.33
2023-06-11T15:59:24.542Z,21.27
2023-06-11T16:02:28.782Z,21.21
2023-06-11T16:05:32.392Z,21.15
2023-06-11T16:08:35.819Z,21.05
2023-06-11T16:11:39.484Z,20.88
2023-06-11T16:14:43.287Z,20.49
2023-06-11T16:17:48.128Z,20.23
2023-06-11T16:20:51.431Z,20.08
2023-06-11T16:23:55.139Z,19.97
2023-06-11T16:26:59.243Z,19.82
2023-06-11T16:30:03.010Z,19.66
2023-06-11T16:33:07.364Z,19.55
2023-06-11T16:36:10.631Z,19.47
2023-06-11T16:39:25.675Z,19.47
2023-06-11T16:42:31.380Z,19.46
2023-06-11T16:45:35.286Z,19.35
2023-06-11T16:48:39.117Z,19.28
2023-06-11T16:51:42.896Z,19.22
2023-06-11T16:54:46.556Z,19.09
2023-06-11T16:57:51.252Z,18.95
2023-06-11T17:00:55.084Z,18.86
2023-06-11T17:03:59.239Z,18.83
2023-06-11T17:07:02.901Z,18.74
2023-06-11T17:10:08.369Z,18.77
2023-06-11T17:13:12.165Z,18.83
2023-06-11T17:16:16.602Z,18.79
2023-06-11T17:19:20.344Z,18.66
2023-06-11T17:22:25.376Z,18.55
2023-06-11T17:25:29.072Z,18.44
2023-06-11T17:28:33.005Z,18.32
2023-06-11T17:31:36.760Z,18.22
2023-06-11T17:34:40.853Z,18.14
2023-06-11T17:37:44.658Z,18.09
2023-06-11T17:40:48.788Z,18.07
2023-06-11T17:43:52.508Z,17.97
2023-06-11T17:46:57.025Z,17.94
2023-06-11T17:50:00.404Z,17.90
2023-06-11T17:53:03.823Z,17.66
2023-06-11T17:56:08.078Z,17.55
2023-06-11T17:59:12.208Z,17.56
2023-06-11T18:02:16.983Z,17.55
2023-06-11T18:05:20.921Z,17.31
2023-06-11T18:08:24.629Z,17.19
2023-06-11T18:11:29.356Z,17.20
2023-06-11T18:14:33.181Z,17.18
2023-06-11T18:17:36.923Z,17.13
2023-06-11T18:20:40.576Z,17.00
2023-06-11T18:23:45.037Z,16.93
2023-06-11T18:26:48.724Z,16.93
2023-06-11T18:29:52.914Z,16.91
2023-06-11T18:32:56.701Z,16.89
2023-06-11T18:36:00.733Z,16.95
2023-06-11T18:39:04.810Z,16.88
2023-06-11T18:42:18.864Z,16.83
2023-06-11T18:45:22.694Z,16.77
2023-06-11T18:48:26.527Z,16.74
2023-06-11T18:51:29.797Z,16.71
2023-06-11T18:54:33.676Z,16.61
2023-06-11T18:57:37.354Z,16.50
2023-06-11T19:00:42.403Z,16.46
2023-06-11T19:03:46.503Z,16.41
2023-06-11T19:06:53.323Z,16.33
2023-06-11T19:09:57.021Z,16.06
2023-06-11T19:13:02.037Z,16.10
2023-06-11T19:16:06.637Z,16.20
2023-06-11T19:19:10.294Z,16.27
2023-06-11T19:22:14.604Z,16.35
2023-06-11T19:25:18.340Z,16.34
2023-06-11T19:28:22.470Z,16.35
2023-06-11T19:31:26.294Z,16.27
2023-06-11T19:34:30.382Z,16.18
2023-06-11T19:37:36.187Z,16.06
2023-06-11T19:40:40.327Z,15.90
2023-06-11T19:43:43.317Z,15.87
2023-06-11T19:46:47.554Z,15.89
2023-06-11T19:49:51.197Z,15.89
2023-06-11T19:52:55.437Z,15.80
2023-06-11T19:55:59.118Z,15.70
2023-06-11T19:59:03.436Z,15.68
2023-06-11T20:02:07.567Z,15.63
2023-06-11T20:05:12.087Z,15.56
2023-06-11T20:08:16.280Z,15.44
2023-06-11T20:11:20.404Z,15.36
2023-06-11T20:14:27.121Z,15.25
2023-06-11T20:17:31.307Z,15.08
2023-06-11T20:20:35.063Z,15.02
2023-06-11T20:23:39.478Z,14.95
2023-06-11T20:26:42.610Z,14.85
2023-06-11T20:29:47.524Z,14.79
2023-06-11T20:32:51.162Z,14.89
2023-06-11T20:35:55.099Z,14.95
2023-06-11T20:38:58.806Z,14.98
2023-06-11T20:42:02.800Z,15.02
2023-06-11T20:45:07.763Z,14.91
2023-06-11T20:48:11.166Z,14.82
2023-06-11T20:51:15.807Z,14.73
2023-06-11T20:54:19.213Z,14.75
2023-06-11T20:57:22.301Z,14.87
2023-06-11T21:00:26.180Z,15.00
2023-06-11T21:03:30.092Z,15.01
2023-06-11T21:06:33.921Z,14.89
2023-06-11T21:09:37.554Z,14.93
2023-06-11T21:12:46.640Z,14.98
2023-06-11T21:15:50.724Z,14.94
2023-06-11T21:18:54.401Z,15.01
2023-06-11T21:21:58.352Z,15.06
2023-06-11T21:25:01.995Z,15.10
2023-06-11T21:28:06.207Z,15.01
2023-06-11T21:31:10.403Z,15.03
2023-06-11T21:34:14.134Z,15.14
2023-06-11T21:37:18.466Z,15.20
2023-06-11T21:40:22.393Z,15.22
2023-06-11T21:43:26.671Z,15.33
2023-06-11T21:46:29.577Z,15.34
2023-06-11T21:49:33.644Z,15.27
2023-06-11T21:52:39.380Z,15.29
2023-06-11T21:55:43.425Z,15.19
2023-06-11T21:58:46.396Z,15.25
2023-06-11T22:01:50.367Z,15.37
2023-06-11T22:04:54.174Z,15.60
2023-06-11T22:08:01.453Z,16.06
2023-06-11T22:11:05.408Z,16.91
2023-06-11T22:14:09.576Z,18.02
2023-06-11T22:17:12.653Z,18.87
2023-06-11T22:20:17.333Z,19.50
2023-06-11T22:23:20.478Z,19.79
2023-06-11T22:26:25.147Z,20.35
2023-06-11T22:29:28.901Z,21.54
2023-06-11T22:32:32.590Z,23.02
2023-06-11T22:35:35.534Z,24.27
2023-06-11T22:38:38.873Z,25.20
2023-06-11T22:41:42.446Z,26.39
2023-06-11T22:44:46.201Z,27.77
2023-06-11T22:47:52.427Z,29.18
2023-06-11T22:50:56.144Z,29.88
2023-06-11T22:54:00.231Z,29.86
2023-06-11T22:57:04.869Z,30.35
2023-06-11T23:00:12.004Z,31.25
2023-06-11T23:03:15.381Z,31.71
2023-06-11T23:06:19.461Z,31.69
2023-06-11T23:09:23.250Z,31.55
2023-06-11T23:12:26.606Z,32.36
2023-06-11T23:15:30.447Z,33.27
2023-06-11T23:18:33.502Z,34.23
2023-06-11T23:21:38.956Z,34.64
2023-06-11T23:24:42.536Z,33.84
2023-06-11T23:27:45.640Z,33.69
2023-06-11T23:30:52.500Z,34.17
2023-06-11T23:33:56.510Z,34.83
2023-06-11T23:37:01.825Z,34.19
2023-06-11T23:40:06.414Z,34.17
2023-06-11T23:43:10.394Z,34.32
2023-06-11T23:46:13.961Z,34.71
2023-06-11T23:49:17.699Z,33.36
2023-06-11T23:52:21.319Z,32.46
2023-06-11T23:55:24.611Z,32.46
2023-06-11T23:58:28.582Z,32.08
